CST,Max TemperatureF,Mean TemperatureF,Min TemperatureF,Max Dew PointF,MeanDew PointF,Min DewpointF,Max Humidity, Mean Humidity, Min Humidity, Max Sea Level PressureIn, Mean Sea Level PressureIn, Min Sea Level PressureIn, Max VisibilityMiles, Mean VisibilityMiles, Min VisibilityMiles, Max Wind SpeedMPH, Mean Wind SpeedMPH, Max Gust SpeedMPH,PrecipitationIn, CloudCover, Events, WindDirDegrees
2014-1-1,66,46,26,43,30,20,93,72,40,30.27,30.07,29.84,10,10,10,26,8,34,0.00,0,,104
2014-1-2,39,29,19,21,18,16,96,77,42,30.49,30.40,30.28,10,10,5,17,11,29,0.00,1,,335
2014-1-3,50,34,17,27,22,16,99,74,37,30.44,30.26,29.96,10,10,10,18,4,28,0.00,0,,149
2014-1-4,66,50,35,46,33,26,87,70,49,29.96,29.86,29.70,10,10,10,20,7,29,0.00,1,,142
2014-1-5,36,26,14,30,20,3,86,73,55,30.60,30.11,29.83,10,10,10,22,16,31,0.00,6,,344
2014-1-6,28,18,8,11,5,1,92,63,31,30.73,30.62,30.53,10,10,10,14,8,16,0.00,0,,336
2014-1-7,48,30,11,19,13,10,100,68,27,30.52,30.40,30.25,10,10,10,17,2,22,0.00,0,,159
2014-1-8,39,35,31,39,27,15,100,77,49,30.24,30.19,30.12,10,7,1,12,7,18,0.01,5,Rain,123
2014-1-9,39,36,32,39,35,32,100,100,100,30.23,30.15,30.01,5,2,0,7,5,,0.00,8,Fog,93
2014-1-10,66,50,32,59,42,32,100,92,55,30.00,29.83,29.61,10,5,0,16,5,25,0.00,5,Fog-Rain-Thunderstorm,149
2014-1-11,66,46,26,34,31,27,100,81,24,30.07,29.95,29.82,10,10,10,22,2,28,0.00,0,,287
2014-1-12,73,50,27,52,34,26,97,72,25,30.00,29.89,29.69,10,10,10,23,4,34,0.00,1,,185
2014-1-13,60,45,30,50,32,23,92,57,25,30.05,29.93,29.78,10,10,10,21,9,32,0.00,1,,330
2014-1-14,60,42,24,36,26,18,99,72,33,30.34,30.11,29.98,10,10,10,20,3,26,0.00,0,,339
2014-1-15,55,42,28,29,25,20,75,61,33,30.37,30.25,30.04,10,10,10,12,4,17,0.00,0,,305
2014-1-16,64,46,28,32,24,12,95,55,16,30.18,30.05,29.97,10,10,10,22,5,38,0.00,1,,310
2014-1-17,51,40,28,26,18,14,87,43,23,30.36,30.24,30.14,10,10,7,18,10,26,0.00,2,,335
2014-1-18,66,46,27,32,25,22,90,60,26,30.20,30.11,29.99,10,10,7,18,3,26,0.00,0,,280
2014-1-19,64,44,24,30,26,23,93,63,26,30.27,30.18,30.00,10,10,10,15,4,18,0.00,0,,293
2014-1-20,68,49,30,37,30,26,93,55,26,30.27,29.99,29.87,10,10,5,15,3,25,0.00,0,,324
2014-1-21,42,34,25,27,17,9,74,49,28,30.47,30.31,30.16,10,10,7,17,7,25,0.00,0,,339
2014-1-22,53,37,21,25,20,16,86,59,30,30.27,30.15,30.09,10,10,10,14,3,18,0.00,0,,58
2014-1-23,37,28,19,22,9,-2,64,44,27,30.80,30.54,30.28,10,10,10,23,12,30,0.00,1,,25
2014-1-24,42,25,8,12,4,0,85,48,22,30.79,30.55,30.17,10,10,10,13,4,23,0.00,0,,259
2014-1-25,69,45,21,36,22,11,91,63,28,30.16,30.08,29.95,10,10,10,14,1,,0.00,0,,337
2014-1-26,71,50,30,37,32,29,96,72,25,29.94,29.84,29.64,10,10,7,98,3,16,0.00,0,,326
2014-1-27,53,38,22,32,9,-4,63,39,23,30.41,30.22,29.87,10,10,10,29,19,41,0.00,2,,22
2014-1-28,33,24,13,14,4,-1,87,50,28,30.53,30.43,30.40,10,10,7,20,12,24,0.00,4,Snow,12
2014-1-29,46,27,8,18,11,7,96,67,23,30.42,30.31,30.12,10,10,10,14,2,20,0.00,0,,168
2014-1-30,57,44,31,43,26,16,89,60,44,30.10,29.93,29.78,10,10,10,20,10,30,0.00,0,,152
2014-1-31,68,54,38,54,44,36,100,84,46,29.83,29.78,29.76,10,9,4,14,8,17,0.00,3,,137